createdAt,value
2022-07-31T00:00:00.829Z,15.48
2022-07-31T00:00:20.884Z,15.48
2022-07-31T00:00:41.045Z,15.51
2022-07-31T00:01:01.005Z,15.5
2022-07-31T00:01:21.081Z,15.47
2022-07-31T00:01:41.134Z,15.46
2022-07-31T00:02:01.198Z,15.47
2022-07-31T00:02:21.255Z,15.47
2022-07-31T00:02:41.314Z,15.47
2022-07-31T00:03:01.413Z,15.48
2022-07-31T00:03:21.602Z,15.47
2022-07-31T00:03:41.537Z,15.48
2022-07-31T00:04:01.568Z,15.48
2022-07-31T00:04:21.633Z,15.48
2022-07-31T00:04:41.699Z,15.47
2022-07-31T00:05:01.746Z,15.46
2022-07-31T00:05:21.785Z,15.48
2022-07-31T00:05:42.587Z,15.47
2022-07-31T00:06:01.925Z,15.48
2022-07-31T00:06:21.983Z,15.48
2022-07-31T00:06:42.038Z,15.47
2022-07-31T00:07:02.568Z,15.5
2022-07-31T00:07:22.157Z,15.48
2022-07-31T00:07:42.211Z,15.5
2022-07-31T00:08:02.282Z,15.51
2022-07-31T00:08:22.338Z,15.5
2022-07-31T00:08:42.398Z,15.48
2022-07-31T00:09:02.448Z,15.48
2022-07-31T00:09:53.824Z,15.48
2022-07-31T00:09:54.025Z,15.48
2022-07-31T00:10:02.621Z,15.5
2022-07-31T00:10:22.697Z,15.5
2022-07-31T00:10:42.827Z,15.5
2022-07-31T00:11:02.823Z,15.51
2022-07-31T00:11:22.920Z,15.54
2022-07-31T00:11:42.936Z,15.51
2022-07-31T00:12:03.003Z,15.5
2022-07-31T00:12:23.047Z,15.51
2022-07-31T00:12:43.102Z,15.53
2022-07-31T00:13:03.148Z,15.51
2022-07-31T00:13:57.821Z,15.5
2022-07-31T00:13:58.054Z,15.53
2022-07-31T00:14:03.353Z,15.51
2022-07-31T00:14:23.418Z,15.51
2022-07-31T00:14:43.484Z,15.53
2022-07-31T00:15:03.543Z,15.48
2022-07-31T00:15:23.600Z,15.5
2022-07-31T00:15:43.754Z,15.48
2022-07-31T00:16:03.726Z,15.46
2022-07-31T00:16:23.781Z,15.47
2022-07-31T00:16:43.843Z,15.5
2022-07-31T00:17:04.287Z,15.47
2022-07-31T00:17:23.982Z,15.47
2022-07-31T00:17:44.039Z,15.47
2022-07-31T00:18:04.093Z,15.48
2022-07-31T00:18:24.136Z,15.48
2022-07-31T00:18:44.197Z,15.5
2022-07-31T00:19:04.252Z,15.48
2022-07-31T00:19:24.317Z,15.5
2022-07-31T00:19:44.382Z,15.51
2022-07-31T00:20:04.429Z,15.51
2022-07-31T00:20:24.477Z,15.5
2022-07-31T00:20:44.632Z,15.5
2022-07-31T00:21:04.607Z,15.48
2022-07-31T00:21:24.673Z,15.51
2022-07-31T00:21:44.721Z,15.53
2022-07-31T00:22:04.781Z,15.51
2022-07-31T00:22:24.845Z,15.51
2022-07-31T00:22:44.902Z,15.51
2022-07-31T00:23:04.964Z,15.53
2022-07-31T00:23:25.053Z,15.53
2022-07-31T00:23:45.097Z,15.54
2022-07-31T00:24:05.150Z,15.53
2022-07-31T00:24:25.215Z,15.56
2022-07-31T00:24:45.283Z,15.54
2022-07-31T00:25:05.359Z,15.54
2022-07-31T00:25:25.415Z,15.53
2022-07-31T00:25:45.538Z,15.54
2022-07-31T00:26:05.525Z,15.54
2022-07-31T00:26:25.573Z,15.53
2022-07-31T00:26:45.663Z,15.53
2022-07-31T00:27:06.154Z,15.53
2022-07-31T00:27:25.748Z,15.54
2022-07-31T00:27:45.821Z,15.56
2022-07-31T00:28:05.885Z,15.54
2022-07-31T00:28:25.934Z,15.54
2022-07-31T00:28:46.004Z,15.51
2022-07-31T00:29:06.074Z,15.51
2022-07-31T00:29:26.128Z,15.53
2022-07-31T00:29:46.169Z,15.53
2022-07-31T00:30:06.255Z,15.5
2022-07-31T00:30:26.324Z,15.51
2022-07-31T00:30:46.452Z,15.51
2022-07-31T00:31:06.450Z,15.53
2022-07-31T00:31:26.490Z,15.51
2022-07-31T00:31:46.559Z,15.53
2022-07-31T00:32:06.619Z,15.51
2022-07-31T00:32:26.678Z,15.53
2022-07-31T00:32:46.743Z,15.5
2022-07-31T00:33:06.784Z,15.51
2022-07-31T00:33:26.855Z,15.53
2022-07-31T00:33:46.931Z,15.53
2022-07-31T00:34:06.965Z,15.5
2022-07-31T00:34:27.024Z,15.5
2022-07-31T00:34:47.105Z,15.5
2022-07-31T00:35:07.146Z,15.51
2022-07-31T00:35:27.205Z,15.48
2022-07-31T00:35:47.365Z,15.5
2022-07-31T00:36:07.323Z,15.5
2022-07-31T00:36:30.215Z,15.5
2022-07-31T00:36:47.463Z,15.48
2022-07-31T00:37:07.573Z,15.5
2022-07-31T00:37:27.567Z,15.5
2022-07-31T00:37:47.644Z,15.46
2022-07-31T00:38:26.281Z,15.48
2022-07-31T00:38:28.041Z,15.47
2022-07-31T00:38:47.816Z,15.48
2022-07-31T00:39:07.864Z,15.48
2022-07-31T00:39:27.917Z,15.48
2022-07-31T00:39:48.004Z,15.48
2022-07-31T00:40:08.040Z,15.48
2022-07-31T00:40:28.099Z,15.46
2022-07-31T00:40:48.221Z,15.44
2022-07-31T00:41:08.208Z,15.47
2022-07-31T00:41:28.282Z,15.46
2022-07-31T00:41:48.372Z,15.47
2022-07-31T00:42:08.417Z,15.44
2022-07-31T00:42:28.478Z,15.46
2022-07-31T00:42:48.537Z,15.44
2022-07-31T00:43:08.588Z,15.44
2022-07-31T00:43:30.723Z,15.43
2022-07-31T00:43:48.700Z,15.44
2022-07-31T00:44:12.207Z,15.43
2022-07-31T00:44:28.833Z,15.46
2022-07-31T00:44:48.895Z,15.43
2022-07-31T00:45:08.951Z,15.46
2022-07-31T00:45:31.600Z,15.43
2022-07-31T00:45:50.491Z,15.44
2022-07-31T00:46:14.592Z,15.44
2022-07-31T00:46:29.188Z,15.43
2022-07-31T00:46:49.266Z,15.41
2022-07-31T00:47:09.313Z,15.38
2022-07-31T00:47:29.838Z,15.41
2022-07-31T00:47:49.442Z,15.4
2022-07-31T00:48:09.464Z,15.37
2022-07-31T00:48:29.543Z,15.4
2022-07-31T00:48:49.632Z,15.4
2022-07-31T00:49:09.674Z,15.41
2022-07-31T00:49:37.692Z,15.4
2022-07-31T00:49:49.767Z,15.37
2022-07-31T00:50:09.839Z,15.4
2022-07-31T00:50:29.894Z,15.38
2022-07-31T00:50:50.032Z,15.38
2022-07-31T00:51:10.015Z,15.37
2022-07-31T00:51:30.071Z,15.37
2022-07-31T00:51:50.116Z,15.36
2022-07-31T00:52:10.226Z,15.38
2022-07-31T00:52:30.263Z,15.4
2022-07-31T00:52:50.324Z,15.4
2022-07-31T00:53:10.381Z,15.37
2022-07-31T00:53:30.456Z,15.37
2022-07-31T00:53:50.546Z,15.37
2022-07-31T00:54:10.578Z,15.37
2022-07-31T00:54:30.630Z,15.38
2022-07-31T00:54:50.687Z,15.38
2022-07-31T00:55:10.765Z,15.37
2022-07-31T00:55:30.836Z,15.37
2022-07-31T00:55:51.753Z,15.4
2022-07-31T00:56:10.943Z,15.37
2022-07-31T00:56:30.991Z,15.38
2022-07-31T00:56:51.072Z,15.37
2022-07-31T00:57:11.120Z,15.38
2022-07-31T00:57:31.178Z,15.38
2022-07-31T00:57:51.224Z,15.4
2022-07-31T00:58:11.324Z,15.38
2022-07-31T00:58:31.380Z,15.4
2022-07-31T00:58:51.452Z,15.37
2022-07-31T00:59:11.482Z,15.38
2022-07-31T00:59:31.561Z,15.36
2022-07-31T00:59:51.618Z,15.41
2022-07-31T01:00:11.663Z,15.4
2022-07-31T01:00:31.731Z,15.36
2022-07-31T01:00:51.922Z,15.37
2022-07-31T01:01:11.964Z,15.36
2022-07-31T01:01:31.957Z,15.37
2022-07-31T01:01:51.986Z,15.36
2022-07-31T01:02:12.027Z,15.36
2022-07-31T01:02:32.094Z,15.36
2022-07-31T01:02:52.145Z,15.36
2022-07-31T01:03:12.205Z,15.34
2022-07-31T01:03:32.264Z,15.36
2022-07-31T01:03:52.314Z,15.36
2022-07-31T01:04:15.561Z,15.38
2022-07-31T01:04:32.443Z,15.37
2022-07-31T01:04:52.493Z,15.37
2022-07-31T01:05:12.577Z,15.37
2022-07-31T01:05:32.639Z,15.37
2022-07-31T01:05:52.777Z,15.37
2022-07-31T01:06:12.752Z,15.38
2022-07-31T01:06:32.818Z,15.37
2022-07-31T01:06:52.886Z,15.4
2022-07-31T01:07:12.941Z,15.38
2022-07-31T01:07:32.992Z,15.37
2022-07-31T01:07:53.076Z,15.37
2022-07-31T01:08:13.131Z,15.37
2022-07-31T01:08:33.191Z,15.38
2022-07-31T01:08:53.254Z,15.37
2022-07-31T01:09:13.311Z,15.38
2022-07-31T01:09:33.411Z,15.38
2022-07-31T01:09:53.511Z,15.38
2022-07-31T01:10:13.567Z,15.36
2022-07-31T01:10:33.621Z,15.38
2022-07-31T01:10:53.772Z,15.37
2022-07-31T01:11:13.726Z,15.38
2022-07-31T01:11:33.817Z,15.37
2022-07-31T01:11:53.891Z,15.34
2022-07-31T01:12:13.950Z,15.34
2022-07-31T01:12:33.993Z,15.34
2022-07-31T01:12:54.448Z,15.36
2022-07-31T01:13:14.115Z,15.33
2022-07-31T01:13:34.164Z,15.33
2022-07-31T01:13:54.254Z,15.34
2022-07-31T01:14:14.294Z,15.33
2022-07-31T01:14:34.363Z,15.33
2022-07-31T01:14:54.441Z,15.31
2022-07-31T01:15:14.512Z,15.31
2022-07-31T01:15:34.587Z,15.31
2022-07-31T01:15:54.716Z,15.34
2022-07-31T01:16:14.724Z,15.34
2022-07-31T01:16:34.795Z,15.36
2022-07-31T01:16:54.874Z,15.34
2022-07-31T01:17:14.948Z,15.36
2022-07-31T01:17:35.042Z,15.33
2022-07-31T01:17:55.147Z,15.33
2022-07-31T01:18:15.194Z,15.31
2022-07-31T01:18:35.289Z,15.33
2022-07-31T01:18:55.382Z,15.33
2022-07-31T01:19:15.471Z,15.36
2022-07-31T01:19:41.769Z,15.34
2022-07-31T01:19:55.631Z,15.34
2022-07-31T01:20:15.696Z,15.34
2022-07-31T01:20:35.770Z,15.33
2022-07-31T01:20:55.917Z,15.36
2022-07-31T01:21:15.907Z,15.33
2022-07-31T01:21:35.950Z,15.34
2022-07-31T01:21:56.049Z,15.34
2022-07-31T01:22:33.553Z,15.33
2022-07-31T01:22:36.187Z,15.33
2022-07-31T01:22:56.239Z,15.36
2022-07-31T01:23:16.328Z,15.31
2022-07-31T01:23:36.430Z,15.33
2022-07-31T01:23:56.490Z,15.31
2022-07-31T01:24:16.578Z,15.31
2022-07-31T01:24:36.617Z,15.29
2022-07-31T01:24:56.680Z,15.29
2022-07-31T01:25:16.769Z,15.29
2022-07-31T01:25:36.850Z,15.29
2022-07-31T01:25:57.010Z,15.29
2022-07-31T01:26:16.970Z,15.29
2022-07-31T01:26:37.038Z,15.29
2022-07-31T01:26:57.116Z,15.29
2022-07-31T01:27:17.165Z,15.27
2022-07-31T01:27:49.226Z,15.27
2022-07-31T01:27:57.269Z,15.27
2022-07-31T01:28:17.350Z,15.25
2022-07-31T01:28:37.427Z,15.27
2022-07-31T01:28:57.510Z,15.27
2022-07-31T01:29:17.579Z,15.26
2022-07-31T01:29:37.638Z,15.27
2022-07-31T01:29:57.717Z,15.3
2022-07-31T01:30:17.795Z,15.27
2022-07-31T01:30:37.866Z,15.29
2022-07-31T01:31:17.342Z,15.27
2022-07-31T01:31:26.886Z,15.27
2022-07-31T01:31:38.062Z,15.26
2022-07-31T01:31:58.147Z,15.27
2022-07-31T01:32:18.207Z,15.22
2022-07-31T01:32:38.267Z,15.26
2022-07-31T01:32:58.346Z,15.27
2022-07-31T01:33:18.390Z,15.25
2022-07-31T01:33:38.453Z,15.27
2022-07-31T01:33:58.511Z,15.26
2022-07-31T01:34:18.592Z,15.23
2022-07-31T01:34:38.665Z,15.23
2022-07-31T01:34:58.758Z,15.2
2022-07-31T01:35:18.863Z,15.2
2022-07-31T01:35:38.918Z,15.22
2022-07-31T01:35:59.072Z,15.2
2022-07-31T01:36:19.057Z,15.2
2022-07-31T01:36:39.125Z,15.2
2022-07-31T01:36:59.181Z,15.19
2022-07-31T01:37:19.262Z,15.19
2022-07-31T01:37:39.359Z,15.2
2022-07-31T01:37:59.427Z,15.19
2022-07-31T01:38:19.479Z,15.2
2022-07-31T01:38:43.759Z,15.16
2022-07-31T01:38:59.614Z,15.17
2022-07-31T01:39:19.681Z,15.16
2022-07-31T01:39:39.756Z,15.14
2022-07-31T01:39:59.815Z,15.14
2022-07-31T01:40:19.893Z,15.13
2022-07-31T01:40:39.968Z,15.13
2022-07-31T01:41:00.121Z,15.13
2022-07-31T01:41:20.134Z,15.1
2022-07-31T01:41:40.184Z,15.11
2022-07-31T01:42:00.405Z,15.09
2022-07-31T01:42:21.360Z,15.1
2022-07-31T01:42:40.402Z,15.09
2022-07-31T01:43:00.458Z,15.09
2022-07-31T01:43:20.537Z,15.06
2022-07-31T01:43:40.580Z,15.05
2022-07-31T01:44:00.661Z,15.07
2022-07-31T01:44:20.713Z,15.02
2022-07-31T01:44:40.793Z,15.03
2022-07-31T01:45:00.841Z,15.02
2022-07-31T01:45:20.910Z,15.02
2022-07-31T01:45:40.955Z,15.03
2022-07-31T01:46:01.109Z,15.03
2022-07-31T01:46:21.105Z,15.05
2022-07-31T01:46:41.540Z,15.03
2022-07-31T01:47:01.739Z,15.02
2022-07-31T01:47:21.354Z,15
2022-07-31T01:47:41.436Z,15
2022-07-31T01:48:01.510Z,15
2022-07-31T01:48:21.624Z,14.98
2022-07-31T01:48:41.673Z,14.99
2022-07-31T01:49:01.802Z,14.99
2022-07-31T01:49:21.950Z,14.95
2022-07-31T01:49:41.909Z,14.96
2022-07-31T01:50:01.979Z,14.99
2022-07-31T01:50:43.489Z,14.96
2022-07-31T01:50:44.299Z,14.98
2022-07-31T01:51:02.290Z,14.95
2022-07-31T01:51:22.303Z,14.99
2022-07-31T01:51:42.382Z,14.98
2022-07-31T01:52:04.754Z,14.98
2022-07-31T01:52:22.541Z,14.96
2022-07-31T01:52:42.633Z,14.98
2022-07-31T01:53:02.694Z,14.95
2022-07-31T01:53:22.771Z,14.96
2022-07-31T01:53:42.824Z,14.96
2022-07-31T01:54:02.909Z,14.95
2022-07-31T01:54:22.999Z,14.93
2022-07-31T01:54:43.090Z,14.9
2022-07-31T01:55:03.181Z,14.93
2022-07-31T01:55:24.513Z,14.9
2022-07-31T01:56:02.983Z,14.9
2022-07-31T01:56:04.486Z,14.89
2022-07-31T01:56:23.438Z,14.9
2022-07-31T01:56:43.524Z,14.89
2022-07-31T01:57:03.605Z,14.9
2022-07-31T01:57:23.676Z,14.9
2022-07-31T01:57:43.777Z,14.92
2022-07-31T01:58:03.855Z,14.9
2022-07-31T01:58:23.935Z,14.89
2022-07-31T01:58:44.030Z,14.89
2022-07-31T01:59:04.108Z,14.89
2022-07-31T01:59:24.627Z,14.89
2022-07-31T01:59:44.837Z,14.89
2022-07-31T02:00:04.325Z,14.89
2022-07-31T02:00:33.912Z,14.89
2022-07-31T02:00:44.512Z,14.89
2022-07-31T02:01:04.723Z,14.89
2022-07-31T02:01:27.299Z,14.86
2022-07-31T02:01:44.782Z,14.88
2022-07-31T02:02:05.418Z,14.86
2022-07-31T02:02:24.861Z,14.86
2022-07-31T02:02:44.943Z,14.86
2022-07-31T02:03:09.473Z,14.85
2022-07-31T02:03:44.296Z,14.83
2022-07-31T02:03:45.661Z,14.82
2022-07-31T02:04:05.253Z,14.85
2022-07-31T02:04:25.320Z,14.83
2022-07-31T02:04:45.380Z,14.83
2022-07-31T02:05:05.444Z,14.83
2022-07-31T02:05:25.504Z,14.83
2022-07-31T02:05:45.559Z,14.83
2022-07-31T02:06:05.679Z,14.82
2022-07-31T02:06:25.663Z,14.82
2022-07-31T02:06:45.726Z,14.82
2022-07-31T02:07:05.807Z,14.83
2022-07-31T02:07:25.835Z,14.85
2022-07-31T02:07:45.909Z,14.83
2022-07-31T02:08:05.966Z,14.83
2022-07-31T02:08:26.013Z,14.83
2022-07-31T02:08:46.146Z,14.86
2022-07-31T02:09:06.159Z,14.85
2022-07-31T02:09:26.208Z,14.85
2022-07-31T02:09:53.872Z,14.85
2022-07-31T02:10:06.318Z,14.86
2022-07-31T02:10:26.385Z,14.88
2022-07-31T02:10:46.420Z,14.85
2022-07-31T02:11:06.566Z,14.85
2022-07-31T02:11:26.553Z,14.83
2022-07-31T02:11:53.310Z,14.85
2022-07-31T02:12:09.690Z,14.86
2022-07-31T02:12:32.950Z,14.88
2022-07-31T02:12:46.779Z,14.85
2022-07-31T02:13:06.853Z,14.88
2022-07-31T02:13:26.960Z,14.88
2022-07-31T02:13:47.003Z,14.86
2022-07-31T02:14:07.050Z,14.88
2022-07-31T02:14:27.095Z,14.86
2022-07-31T02:14:47.167Z,14.88
2022-07-31T02:15:07.241Z,14.85
2022-07-31T02:15:27.310Z,14.86
2022-07-31T02:15:47.358Z,14.88
2022-07-31T02:16:07.507Z,14.86
2022-07-31T02:16:27.500Z,14.85
2022-07-31T02:16:47.595Z,14.88
2022-07-31T02:17:07.630Z,14.85
2022-07-31T02:17:27.713Z,14.88
2022-07-31T02:17:47.802Z,14.88
2022-07-31T02:18:07.891Z,14.88
2022-07-31T02:18:27.961Z,14.88
2022-07-31T02:18:48.018Z,14.88
2022-07-31T02:19:08.106Z,14.86
2022-07-31T02:19:28.202Z,14.88
2022-07-31T02:19:59.639Z,14.89
2022-07-31T02:20:08.353Z,14.89
2022-07-31T02:20:28.422Z,14.88
2022-07-31T02:20:48.497Z,14.88
2022-07-31T02:21:08.666Z,14.85
2022-07-31T02:21:28.637Z,14.85
2022-07-31T02:21:48.714Z,14.85
2022-07-31T02:22:08.804Z,14.86
2022-07-31T02:22:28.906Z,14.89
2022-07-31T02:22:48.999Z,14.86
2022-07-31T02:23:09.023Z,14.88
2022-07-31T02:23:29.084Z,14.86
2022-07-31T02:23:49.173Z,14.88
2022-07-31T02:24:09.264Z,14.86
2022-07-31T02:24:29.321Z,14.88
2022-07-31T02:24:49.389Z,14.83
2022-07-31T02:25:09.472Z,14.88
2022-07-31T02:25:29.553Z,14.88
2022-07-31T02:25:49.646Z,14.88
2022-07-31T02:26:09.777Z,14.88
2022-07-31T02:26:29.754Z,14.85
2022-07-31T02:26:49.815Z,14.85
2022-07-31T02:27:54.025Z,14.83
2022-07-31T02:27:54.066Z,14.83
2022-07-31T02:27:58.213Z,14.86
2022-07-31T02:28:10.108Z,14.82
2022-07-31T02:28:30.192Z,14.82
2022-07-31T02:28:50.280Z,14.82
2022-07-31T02:29:20.081Z,14.8
2022-07-31T02:29:30.425Z,14.8
2022-07-31T02:29:50.489Z,14.79
2022-07-31T02:30:10.559Z,14.79
2022-07-31T02:30:39.553Z,14.78
2022-07-31T02:30:50.726Z,14.78
2022-07-31T02:31:10.855Z,14.78
2022-07-31T02:31:30.865Z,14.76
2022-07-31T02:32:02.904Z,14.78
2022-07-31T02:32:11.097Z,14.74
2022-07-31T02:32:31.071Z,14.72
2022-07-31T02:32:51.111Z,14.72
2022-07-31T02:33:11.183Z,14.72
2022-07-31T02:33:31.260Z,14.71
2022-07-31T02:33:51.348Z,14.69
2022-07-31T02:34:11.395Z,14.68
2022-07-31T02:34:31.463Z,14.68
2022-07-31T02:34:51.519Z,14.68
2022-07-31T02:35:11.608Z,14.65
2022-07-31T02:35:31.708Z,14.64
2022-07-31T02:35:51.764Z,14.64
2022-07-31T02:36:11.938Z,14.61
2022-07-31T02:36:31.958Z,14.59
2022-07-31T02:36:52.018Z,14.58
2022-07-31T02:37:12.096Z,14.58
2022-07-31T02:37:32.159Z,14.53
2022-07-31T02:37:52.235Z,14.53
2022-07-31T02:38:22.387Z,14.53
2022-07-31T02:38:32.386Z,14.53
2022-07-31T02:38:52.423Z,14.47
2022-07-31T02:39:12.514Z,14.45
2022-07-31T02:39:32.624Z,14.47
2022-07-31T02:39:52.717Z,14.44
2022-07-31T02:40:12.800Z,14.42
2022-07-31T02:40:32.930Z,14.41
2022-07-31T02:40:52.966Z,14.4
2022-07-31T02:41:13.123Z,14.37
2022-07-31T02:41:33.130Z,14.34
2022-07-31T02:41:53.177Z,14.32
2022-07-31T02:42:13.281Z,14.32
2022-07-31T02:42:33.331Z,14.31
2022-07-31T02:42:53.439Z,14.31
2022-07-31T02:43:13.500Z,14.28
2022-07-31T02:43:33.556Z,14.27
2022-07-31T02:43:53.645Z,14.25
2022-07-31T02:44:13.729Z,14.24
2022-07-31T02:44:33.838Z,14.24
2022-07-31T02:44:53.949Z,14.24
2022-07-31T02:45:14.015Z,14.23
2022-07-31T02:45:34.086Z,14.2
2022-07-31T02:45:54.134Z,14.21
2022-07-31T02:46:14.263Z,14.23
2022-07-31T02:46:34.259Z,14.2
2022-07-31T02:46:54.347Z,14.14
2022-07-31T02:47:14.388Z,14.16
2022-07-31T02:47:34.456Z,14.16
2022-07-31T02:47:54.514Z,14.11
2022-07-31T02:48:14.592Z,14.13
2022-07-31T02:48:34.653Z,14.11
2022-07-31T02:48:54.753Z,14.09
2022-07-31T02:49:14.849Z,14.07
2022-07-31T02:49:34.997Z,14.04
2022-07-31T02:49:54.959Z,14.04
2022-07-31T02:50:15.023Z,14.03
2022-07-31T02:50:35.087Z,14.06
2022-07-31T02:50:55.172Z,14.06
2022-07-31T02:51:15.315Z,14.04
2022-07-31T02:51:40.993Z,14.03
2022-07-31T02:51:55.372Z,13.99
2022-07-31T02:52:15.429Z,13.97
2022-07-31T02:52:35.480Z,13.97
2022-07-31T02:52:55.543Z,13.96
2022-07-31T02:53:15.622Z,13.93
2022-07-31T02:53:35.705Z,13.93
2022-07-31T02:53:55.787Z,13.93
2022-07-31T02:54:15.866Z,13.92
2022-07-31T02:54:35.977Z,13.92
2022-07-31T02:54:56.024Z,13.87
2022-07-31T02:55:16.086Z,13.9
2022-07-31T02:55:36.126Z,13.9
2022-07-31T02:55:56.189Z,13.89
2022-07-31T02:56:16.326Z,13.86
2022-07-31T02:56:36.328Z,13.86
2022-07-31T02:56:56.428Z,13.84
2022-07-31T02:57:16.519Z,13.83
2022-07-31T02:57:36.590Z,13.82
2022-07-31T02:57:56.653Z,13.79
2022-07-31T02:58:16.732Z,13.79
2022-07-31T02:58:36.792Z,13.77
2022-07-31T02:58:56.875Z,13.73
2022-07-31T02:59:16.943Z,13.73
2022-07-31T02:59:37.022Z,13.7
2022-07-31T02:59:57.090Z,13.72
2022-07-31T03:00:17.151Z,13.7
2022-07-31T03:00:37.290Z,13.69
2022-07-31T03:00:57.350Z,13.68
2022-07-31T03:01:17.516Z,13.68
2022-07-31T03:01:37.451Z,13.66
2022-07-31T03:01:57.509Z,13.63
2022-07-31T03:02:17.579Z,13.63
2022-07-31T03:02:37.945Z,13.62
2022-07-31T03:02:57.769Z,13.61
2022-07-31T03:03:17.841Z,13.61
2022-07-31T03:03:37.930Z,13.61
2022-07-31T03:03:57.986Z,13.59
2022-07-31T03:04:18.059Z,13.59
2022-07-31T03:04:38.104Z,13.62
2022-07-31T03:04:58.192Z,13.58
2022-07-31T03:05:18.293Z,13.58
2022-07-31T03:05:38.356Z,13.56
2022-07-31T03:05:58.414Z,13.56
2022-07-31T03:06:18.550Z,13.58
2022-07-31T03:06:38.544Z,13.58
2022-07-31T03:06:58.616Z,13.56
2022-07-31T03:07:18.666Z,13.54
2022-07-31T03:07:38.731Z,13.56
2022-07-31T03:07:58.827Z,13.55
2022-07-31T03:08:18.907Z,13.56
2022-07-31T03:08:38.975Z,13.56
2022-07-31T03:08:59.101Z,13.54
2022-07-31T03:09:19.184Z,13.54
2022-07-31T03:09:39.255Z,13.52
2022-07-31T03:09:59.345Z,13.51
2022-07-31T03:10:19.418Z,13.49
2022-07-31T03:10:39.514Z,13.51
2022-07-31T03:10:59.580Z,13.54
2022-07-31T03:11:19.710Z,13.49
2022-07-31T03:11:39.672Z,13.52
2022-07-31T03:12:04.397Z,13.49
2022-07-31T03:12:19.837Z,13.49
2022-07-31T03:12:39.909Z,13.48
2022-07-31T03:12:59.989Z,13.46
2022-07-31T03:13:20.077Z,13.49
2022-07-31T03:13:40.142Z,13.46
2022-07-31T03:14:00.210Z,13.45
2022-07-31T03:14:20.267Z,13.42
2022-07-31T03:14:40.363Z,13.44
2022-07-31T03:15:00.446Z,13.42
2022-07-31T03:15:20.530Z,13.41
2022-07-31T03:15:40.629Z,13.37
2022-07-31T03:16:00.728Z,13.37
2022-07-31T03:16:20.880Z,13.37
2022-07-31T03:16:40.852Z,13.34
2022-07-31T03:17:00.949Z,13.35
2022-07-31T03:17:20.978Z,13.34
2022-07-31T03:17:41.303Z,13.33
2022-07-31T03:18:01.124Z,13.34
2022-07-31T03:18:21.184Z,13.34
2022-07-31T03:18:41.260Z,13.34
2022-07-31T03:19:01.312Z,13.34
2022-07-31T03:19:21.388Z,13.37
2022-07-31T03:19:41.458Z,13.35
2022-07-31T03:20:01.515Z,13.35
2022-07-31T03:20:21.589Z,13.34
2022-07-31T03:20:41.706Z,13.31
2022-07-31T03:21:01.773Z,13.33
2022-07-31T03:21:21.909Z,13.29
2022-07-31T03:21:41.908Z,13.28
2022-07-31T03:22:02.385Z,13.27
2022-07-31T03:22:22.062Z,13.25
2022-07-31T03:22:42.145Z,13.27
2022-07-31T03:23:02.208Z,13.24
2022-07-31T03:23:22.277Z,13.24
2022-07-31T03:23:42.376Z,13.24
2022-07-31T03:24:03.131Z,13.25
2022-07-31T03:24:22.507Z,13.24
2022-07-31T03:24:42.571Z,13.21
2022-07-31T03:25:02.650Z,13.22
2022-07-31T03:25:22.711Z,13.22
2022-07-31T03:25:42.792Z,13.22
2022-07-31T03:26:02.882Z,13.21
2022-07-31T03:26:23.009Z,13.18
2022-07-31T03:26:43.007Z,13.18
2022-07-31T03:27:03.077Z,13.15
2022-07-31T03:27:23.145Z,13.14
2022-07-31T03:27:43.217Z,13.15
2022-07-31T03:28:03.283Z,13.11
2022-07-31T03:28:23.348Z,13.11
2022-07-31T03:28:43.400Z,13.14
2022-07-31T03:29:03.453Z,13.11
2022-07-31T03:29:43.477Z,13.1
2022-07-31T03:29:43.950Z,13.11
2022-07-31T03:30:03.714Z,13.1
2022-07-31T03:30:23.806Z,13.1
2022-07-31T03:30:43.910Z,13.08
2022-07-31T03:31:04.022Z,13.07
2022-07-31T03:31:24.147Z,13.06
2022-07-31T03:31:44.158Z,13.07
2022-07-31T03:32:04.596Z,13.07
2022-07-31T03:32:24.313Z,13.06
2022-07-31T03:32:44.407Z,13.01
2022-07-31T03:33:04.474Z,13.03
2022-07-31T03:33:24.550Z,12.98
2022-07-31T03:33:44.616Z,13.03
2022-07-31T03:34:04.676Z,13
2022-07-31T03:34:24.755Z,12.98
2022-07-31T03:34:44.845Z,13
2022-07-31T03:35:04.925Z,12.97
2022-07-31T03:35:24.999Z,12.96
2022-07-31T03:35:45.101Z,12.97
2022-07-31T03:36:05.188Z,12.97
2022-07-31T03:36:25.347Z,12.94
2022-07-31T03:36:45.329Z,12.94
2022-07-31T03:37:05.378Z,12.96
2022-07-31T03:37:25.429Z,12.97
2022-07-31T03:37:45.509Z,12.94
2022-07-31T03:38:38.552Z,12.93
2022-07-31T03:38:39.289Z,12.93
2022-07-31T03:38:50.387Z,12.93
2022-07-31T03:39:05.851Z,12.93
2022-07-31T03:39:25.909Z,12.9
2022-07-31T03:39:46.001Z,12.9
2022-07-31T03:40:06.077Z,12.91
2022-07-31T03:40:26.170Z,12.9
2022-07-31T03:40:46.245Z,12.88
2022-07-31T03:41:06.324Z,12.87
2022-07-31T03:41:26.467Z,12.87
2022-07-31T03:41:46.480Z,12.83
2022-07-31T03:42:06.946Z,12.84
2022-07-31T03:42:26.617Z,12.87
2022-07-31T03:42:46.677Z,12.86
2022-07-31T03:43:06.769Z,12.84
2022-07-31T03:43:26.812Z,12.84
2022-07-31T03:43:48.434Z,12.83
2022-07-31T03:44:06.948Z,12.86
2022-07-31T03:44:27.012Z,12.79
2022-07-31T03:44:47.089Z,12.82
2022-07-31T03:45:07.185Z,12.8
2022-07-31T03:45:27.233Z,12.77
2022-07-31T03:45:47.333Z,12.76
2022-07-31T03:46:07.409Z,12.75
2022-07-31T03:46:27.536Z,12.73
2022-07-31T03:46:47.540Z,12.73
2022-07-31T03:47:07.629Z,12.72
2022-07-31T03:47:27.701Z,12.67
2022-07-31T03:47:47.787Z,12.69
2022-07-31T03:48:07.869Z,12.67
2022-07-31T03:48:27.952Z,12.66
2022-07-31T03:48:48.126Z,12.64
2022-07-31T03:49:08.153Z,12.66
2022-07-31T03:49:28.365Z,12.63
2022-07-31T03:49:48.274Z,12.64
2022-07-31T03:50:08.339Z,12.63
2022-07-31T03:50:28.416Z,12.64
2022-07-31T03:50:48.472Z,12.64
2022-07-31T03:51:08.571Z,12.63
2022-07-31T03:51:28.743Z,12.64
2022-07-31T03:51:48.688Z,12.67
2022-07-31T03:52:12.323Z,12.66
2022-07-31T03:52:28.829Z,12.64
2022-07-31T03:52:48.907Z,12.63
2022-07-31T03:53:11.197Z,12.62
2022-07-31T03:53:29.020Z,12.64
2022-07-31T03:53:49.104Z,12.63
2022-07-31T03:54:09.187Z,12.64
2022-07-31T03:54:29.239Z,12.63
2022-07-31T03:54:49.303Z,12.62
2022-07-31T03:55:09.338Z,12.6
2022-07-31T03:55:29.426Z,12.57
2022-07-31T03:55:49.499Z,12.56
2022-07-31T03:56:09.555Z,12.55
2022-07-31T03:56:29.683Z,12.53
2022-07-31T03:56:49.681Z,12.52
2022-07-31T03:57:09.725Z,12.5
2022-07-31T03:57:31.165Z,12.52
2022-07-31T03:57:49.842Z,12.49
2022-07-31T03:58:09.923Z,12.5
2022-07-31T03:58:29.960Z,12.5
2022-07-31T03:58:52.641Z,12.5
2022-07-31T03:59:10.102Z,12.5
2022-07-31T03:59:34.792Z,12.5
2022-07-31T03:59:50.196Z,12.5
2022-07-31T04:00:16.751Z,12.49
2022-07-31T04:00:30.333Z,12.48
2022-07-31T04:00:50.392Z,12.46
2022-07-31T04:01:12.178Z,12.46
2022-07-31T04:01:58.285Z,12.45
2022-07-31T04:01:58.397Z,12.45
2022-07-31T04:02:11.913Z,12.42
2022-07-31T04:02:31.787Z,12.45
2022-07-31T04:02:50.781Z,12.42
2022-07-31T04:03:10.772Z,12.43
2022-07-31T04:03:30.887Z,12.42
2022-07-31T04:03:50.967Z,12.42
2022-07-31T04:04:10.997Z,12.42
2022-07-31T04:04:31.065Z,12.42
2022-07-31T04:04:51.115Z,12.45
2022-07-31T04:05:11.176Z,12.4
2022-07-31T04:05:31.235Z,12.4
2022-07-31T04:05:51.302Z,12.42
2022-07-31T04:06:11.356Z,12.45
2022-07-31T04:06:31.509Z,12.4
2022-07-31T04:06:51.502Z,12.4
2022-07-31T04:07:11.554Z,12.42
2022-07-31T04:07:31.619Z,12.46
2022-07-31T04:07:51.665Z,12.43
2022-07-31T04:08:11.720Z,12.48
2022-07-31T04:08:31.804Z,12.49
2022-07-31T04:08:51.826Z,12.48
2022-07-31T04:09:15.639Z,12.46
2022-07-31T04:09:31.915Z,12.48
2022-07-31T04:09:51.989Z,12.49
2022-07-31T04:10:12.088Z,12.48
2022-07-31T04:10:32.137Z,12.52
2022-07-31T04:10:52.213Z,12.5
2022-07-31T04:11:12.267Z,12.55
2022-07-31T04:11:32.422Z,12.52
2022-07-31T04:11:52.413Z,12.53
2022-07-31T04:12:12.479Z,12.52
2022-07-31T04:12:32.565Z,12.56
2022-07-31T04:12:52.612Z,12.55
2022-07-31T04:13:12.673Z,12.59
2022-07-31T04:13:32.724Z,12.6
2022-07-31T04:13:52.786Z,12.57
2022-07-31T04:14:12.839Z,12.57
2022-07-31T04:14:32.902Z,12.6
2022-07-31T04:14:52.979Z,12.57
2022-07-31T04:15:13.052Z,12.59
2022-07-31T04:15:33.096Z,12.6
2022-07-31T04:15:53.156Z,12.6
2022-07-31T04:16:13.240Z,12.59
2022-07-31T04:16:33.363Z,12.62
2022-07-31T04:16:53.356Z,12.59
2022-07-31T04:17:13.436Z,12.62
2022-07-31T04:17:33.814Z,12.64
2022-07-31T04:17:53.536Z,12.62
2022-07-31T04:18:13.585Z,12.63
2022-07-31T04:18:33.637Z,12.64
2022-07-31T04:18:53.697Z,12.64
2022-07-31T04:19:13.777Z,12.66